Keytesville, Missouri
Current Conditions -  °F | °C
As of 3:35 AM on Friday 24 Oct 2014 (Local Time) from KVER Reporting Station
Moderate Fog Moderate Fog  
Wind Chill: 54°   Ceiling: 300
Heat Index: 54°   Visibility: 0.25mi
Dew Point: 54°   Wind: 0mph
Humidity: 100%   Direction: NA
Pressure: 30.08"   Gusts: NA
Location:  39.43°N, 92.94°W
Report Text: KVER 240835Z AUTO 00000KT 1/4SM FG OVC003 12/12 A3008 RMK AO2 T01210122
Loading
Personal Weather Stations






























Interactive Weather Map
Tropical Storm Tracking
New forecast layout! Learn more

10-Day Weather Forecast

Advertisements
Track Severe Weather on mobile